createdAt,value
2022-10-15T00:01:34.055Z,6.50
2022-10-15T00:09:04.590Z,6.70
2022-10-15T00:11:32.297Z,7.15
2022-10-15T00:14:00.806Z,5.57
2022-10-15T00:16:29.567Z,6.68
2022-10-15T00:18:58.715Z,6.38
2022-10-15T00:21:26.745Z,6.05
2022-10-15T00:23:54.317Z,6.03
2022-10-15T00:26:24.980Z,6.28
2022-10-15T00:28:54.800Z,6.43
2022-10-15T00:31:26.479Z,6.78
2022-10-15T00:33:56.149Z,6.15
2022-10-15T00:36:29.849Z,7.28
2022-10-15T00:38:57.764Z,6.90
2022-10-15T00:41:30.864Z,7.72
2022-10-15T00:44:19.527Z,5.97
2022-10-15T00:46:53.283Z,6.35
2022-10-15T00:49:40.959Z,6.60
2022-10-15T00:52:14.422Z,6.70
2022-10-15T00:55:03.835Z,6.32
2022-10-15T00:57:33.282Z,5.40
2022-10-15T01:00:06.883Z,6.72
2022-10-15T01:02:34.512Z,7.22
2022-10-15T01:05:01.934Z,6.20
2022-10-15T01:07:30.542Z,7.70
2022-10-15T01:09:57.796Z,7.78
2022-10-15T01:12:43.247Z,7.65
2022-10-15T01:15:26.831Z,6.07
2022-10-15T01:20:48.251Z,6.63
2022-10-15T01:23:50.527Z,6.72
2022-10-15T01:26:20.676Z,7.82
2022-10-15T01:29:25.849Z,5.53
2022-10-15T01:31:59.183Z,8.18
2022-10-15T01:34:53.227Z,8.65
2022-10-15T01:37:26.326Z,6.93
2022-10-15T01:40:37.431Z,10.13
2022-10-15T01:43:11.802Z,7.70
2022-10-15T01:45:54.866Z,8.05
2022-10-15T01:48:38.744Z,7.03
2022-10-15T01:51:07.757Z,7.32
2022-10-15T01:53:38.436Z,8.60
2022-10-15T01:56:17.266Z,7.18
2022-10-15T01:58:46.736Z,6.95
2022-10-15T02:01:16.673Z,7.93
2022-10-15T02:03:53.288Z,7.50
2022-10-15T02:06:24.059Z,7.00
2022-10-15T02:09:15.082Z,6.90
2022-10-15T02:12:05.334Z,8.25
2022-10-15T02:14:52.307Z,7.45
2022-10-15T02:17:54.407Z,8.48
2022-10-15T02:20:29.023Z,7.15
2022-10-15T02:23:30.926Z,7.30
2022-10-15T02:26:04.596Z,7.32
2022-10-15T02:28:35.081Z,7.72
2022-10-15T02:31:05.879Z,6.72
2022-10-15T02:33:37.550Z,7.55
2022-10-15T02:36:06.686Z,7.00
2022-10-15T02:38:37.219Z,7.68
2022-10-15T02:41:12.664Z,7.22
2022-10-15T02:43:42.269Z,6.47
2022-10-15T02:46:13.863Z,9.32
2022-10-15T02:48:43.302Z,8.02
2022-10-15T02:51:10.905Z,7.63
2022-10-15T02:53:39.529Z,9.80
2022-10-15T02:56:07.282Z,7.72
2022-10-15T02:58:35.143Z,8.82
2022-10-15T03:01:02.670Z,7.95
2022-10-15T03:03:30.066Z,8.15
2022-10-15T03:05:57.505Z,7.75
2022-10-15T03:08:25.158Z,10.45
2022-10-15T03:10:54.738Z,7.70
2022-10-15T03:13:22.368Z,8.57
2022-10-15T03:15:52.525Z,7.00
2022-10-15T03:18:20.958Z,7.97
2022-10-15T03:20:56.451Z,8.60
2022-10-15T03:23:24.062Z,7.47
2022-10-15T03:25:59.504Z,8.75
2022-10-15T03:28:30.257Z,8.18
2022-10-15T03:30:57.885Z,7.40
2022-10-15T03:33:25.484Z,8.48
2022-10-15T03:35:54.446Z,7.70
2022-10-15T03:38:22.421Z,9.18
2022-10-15T03:40:52.181Z,7.40
2022-10-15T03:43:31.256Z,7.63
2022-10-15T03:46:08.059Z,7.13
2022-10-15T03:48:40.061Z,8.25
2022-10-15T03:51:07.439Z,7.50
2022-10-15T03:53:35.908Z,7.00
2022-10-15T03:56:07.533Z,6.63
2022-10-15T03:58:40.910Z,9.48
2022-10-15T04:01:15.554Z,9.75
2022-10-15T04:03:44.042Z,8.98
2022-10-15T04:06:13.893Z,10.70
2022-10-15T04:08:41.360Z,9.10
2022-10-15T04:11:22.008Z,8.10
2022-10-15T04:13:59.379Z,7.90
2022-10-15T04:16:26.789Z,7.60
2022-10-15T04:18:55.210Z,10.80
2022-10-15T04:21:22.748Z,8.88
2022-10-15T04:23:58.702Z,12.35
2022-10-15T04:26:32.618Z,7.47
2022-10-15T04:29:01.436Z,6.65
2022-10-15T04:31:30.486Z,9.57
2022-10-15T04:34:01.892Z,8.23
2022-10-15T04:36:29.875Z,10.60
2022-10-15T04:39:23.321Z,8.13
2022-10-15T04:41:51.006Z,9.57
2022-10-15T04:44:24.641Z,9.18
2022-10-15T04:46:56.141Z,7.55
2022-10-15T04:49:43.731Z,9.93
2022-10-15T04:52:34.854Z,11.55
2022-10-15T04:55:08.151Z,9.10
2022-10-15T04:57:39.045Z,9.10
2022-10-15T05:00:08.275Z,9.82
2022-10-15T05:03:13.156Z,9.68
2022-10-15T05:05:51.880Z,9.23
2022-10-15T05:08:19.607Z,9.15
2022-10-15T05:11:26.932Z,9.93
2022-10-15T05:13:57.828Z,7.85
2022-10-15T05:16:32.233Z,7.90
2022-10-15T05:19:06.256Z,7.68
2022-10-15T05:21:36.735Z,8.50
2022-10-15T05:24:16.959Z,7.50
2022-10-15T05:27:03.460Z,9.70
2022-10-15T05:29:33.834Z,9.65
2022-10-15T05:32:01.888Z,10.90
2022-10-15T05:34:31.367Z,9.20
2022-10-15T05:37:08.412Z,11.98
2022-10-15T05:39:41.336Z,10.10
2022-10-15T05:42:10.509Z,8.70
2022-10-15T05:44:46.928Z,8.13
2022-10-15T05:47:14.730Z,9.52
2022-10-15T05:49:42.162Z,11.45
2022-10-15T05:52:18.106Z,8.68
2022-10-15T05:55:04.485Z,8.52
2022-10-15T05:57:34.707Z,12.77
2022-10-15T06:00:06.093Z,8.85
2022-10-15T06:02:39.313Z,7.93
2022-10-15T06:05:08.985Z,9.93
2022-10-15T06:07:39.106Z,7.65
2022-10-15T06:10:06.850Z,8.30
2022-10-15T06:12:39.233Z,9.18
2022-10-15T06:15:07.288Z,10.25
2022-10-15T06:17:37.571Z,10.43
2022-10-15T06:20:07.656Z,9.98
2022-10-15T06:22:35.087Z,10.60
2022-10-15T06:25:02.774Z,9.68
2022-10-15T06:27:30.886Z,9.95
2022-10-15T06:29:58.246Z,9.07
2022-10-15T06:32:25.591Z,10.50
2022-10-15T06:34:54.970Z,7.57
2022-10-15T06:37:22.690Z,8.70
2022-10-15T06:39:51.530Z,7.45
2022-10-15T06:42:18.897Z,9.27
2022-10-15T06:44:48.332Z,9.13
2022-10-15T06:47:17.526Z,7.82
2022-10-15T06:49:47.990Z,10.73
2022-10-15T06:52:17.737Z,11.65
2022-10-15T06:54:47.090Z,8.95
2022-10-15T06:57:14.489Z,12.63
2022-10-15T06:59:42.676Z,9.15
2022-10-15T07:02:10.985Z,10.63
2022-10-15T07:04:38.261Z,8.35
2022-10-15T07:07:05.795Z,12.13
2022-10-15T07:09:34.383Z,8.20
2022-10-15T07:12:01.858Z,11.82
2022-10-15T07:14:30.894Z,12.70
2022-10-15T07:16:59.190Z,10.40
2022-10-15T07:19:28.496Z,10.52
2022-10-15T07:21:55.834Z,8.02
2022-10-15T07:24:23.099Z,7.22
2022-10-15T07:26:50.896Z,7.28
2022-10-15T07:29:18.313Z,9.15
2022-10-15T07:31:47.207Z,12.77
2022-10-15T07:34:17.087Z,8.80
2022-10-15T07:36:44.527Z,8.70
2022-10-15T07:39:12.412Z,7.68
2022-10-15T07:41:39.785Z,7.35
2022-10-15T07:44:07.415Z,10.73
2022-10-15T07:46:34.770Z,10.07
2022-10-15T07:49:02.044Z,8.80
2022-10-15T07:51:29.554Z,8.68
2022-10-15T07:53:56.871Z,9.48
2022-10-15T07:56:24.588Z,8.98
2022-10-15T07:58:52.121Z,10.23
2022-10-15T08:01:21.671Z,9.60
2022-10-15T08:03:49.132Z,11.45
2022-10-15T08:06:17.020Z,9.48
2022-10-15T08:08:47.868Z,6.95
2022-10-15T08:11:17.892Z,8.88
2022-10-15T08:13:49.124Z,6.70
2022-10-15T08:16:19.168Z,9.38
2022-10-15T08:19:00.273Z,7.53
2022-10-15T08:21:27.729Z,9.95
2022-10-15T08:23:55.159Z,9.43
2022-10-15T08:26:35.503Z,12.05
2022-10-15T08:29:02.931Z,12.68
2022-10-15T08:31:34.391Z,9.60
2022-10-15T08:34:02.611Z,13.32
2022-10-15T08:36:29.906Z,9.95
2022-10-15T08:38:57.645Z,11.40
2022-10-15T08:41:39.188Z,10.75
2022-10-15T08:44:13.245Z,11.73
2022-10-15T08:46:46.686Z,14.57
2022-10-15T08:49:41.114Z,10.25
2022-10-15T08:52:25.014Z,13.77
2022-10-15T08:54:55.440Z,10.60
2022-10-15T08:58:01.004Z,13.82
2022-10-15T09:00:46.855Z,14.18
2022-10-15T09:03:40.253Z,10.55
2022-10-15T09:06:20.593Z,9.30
2022-10-15T09:09:25.953Z,11.43
2022-10-15T09:12:05.278Z,8.10
2022-10-15T09:14:41.485Z,10.25
2022-10-15T09:17:30.047Z,13.70
2022-10-15T09:19:58.428Z,11.55
2022-10-15T09:22:29.976Z,10.18
2022-10-15T09:24:57.764Z,11.77
2022-10-15T09:30:47.672Z,13.45
2022-10-15T09:33:33.997Z,12.73
2022-10-15T09:36:12.366Z,13.52
2022-10-15T09:39:13.841Z,16.38
2022-10-15T09:42:16.119Z,14.52
2022-10-15T09:44:45.911Z,12.63
2022-10-15T09:47:23.962Z,11.95
2022-10-15T09:49:56.116Z,14.77
2022-10-15T09:53:00.812Z,12.35
2022-10-15T09:55:47.990Z,10.25
2022-10-15T09:58:18.242Z,11.43
2022-10-15T10:00:59.131Z,10.32
2022-10-15T10:03:39.084Z,13.63
2022-10-15T10:06:14.332Z,12.27
2022-10-15T10:09:03.078Z,13.68
2022-10-15T10:11:55.149Z,10.48
2022-10-15T10:14:39.522Z,10.60
2022-10-15T10:17:29.444Z,9.38
2022-10-15T10:20:24.127Z,8.98
2022-10-15T10:22:56.718Z,12.57
2022-10-15T10:25:26.994Z,11.03
2022-10-15T10:27:55.753Z,11.55
2022-10-15T10:30:23.919Z,11.77
2022-10-15T10:33:00.682Z,13.05
2022-10-15T10:35:43.892Z,11.18
2022-10-15T10:38:29.548Z,13.57
2022-10-15T10:41:05.295Z,9.73
2022-10-15T10:43:38.976Z,11.82
2022-10-15T10:46:16.029Z,10.13
2022-10-15T10:48:52.118Z,9.25
2022-10-15T10:51:27.013Z,7.72
2022-10-15T10:54:01.718Z,10.25
2022-10-15T10:56:42.976Z,8.05
2022-10-15T10:59:33.771Z,11.23
2022-10-15T11:02:01.247Z,10.88
2022-10-15T11:04:31.749Z,11.38
2022-10-15T11:07:04.908Z,15.30
2022-10-15T11:09:43.471Z,13.02
2022-10-15T11:12:38.071Z,9.57
2022-10-15T11:15:11.411Z,10.75
2022-10-15T11:17:57.277Z,13.52
2022-10-15T11:21:06.056Z,13.43
2022-10-15T11:23:55.377Z,11.38
2022-10-15T11:27:11.899Z,11.32
2022-10-15T11:29:47.967Z,10.63
2022-10-15T11:32:25.318Z,10.70
2022-10-15T11:35:09.765Z,9.10
2022-10-15T11:38:01.565Z,11.95
2022-10-15T11:41:26.926Z,10.18
2022-10-15T11:44:42.306Z,14.88
2022-10-15T11:47:15.334Z,11.88
2022-10-15T11:49:58.895Z,12.13
2022-10-15T11:52:46.565Z,10.55
2022-10-15T11:55:20.643Z,11.48
2022-10-15T11:57:52.271Z,12.02
2022-10-15T12:00:45.372Z,9.88
2022-10-15T12:03:20.856Z,11.00
2022-10-15T12:05:55.920Z,14.07
2022-10-15T12:08:26.963Z,16.35
2022-10-15T12:11:16.947Z,9.10
2022-10-15T12:13:56.992Z,11.93
2022-10-15T12:16:30.753Z,9.15
2022-10-15T12:19:14.329Z,10.07
2022-10-15T12:21:57.231Z,8.88
2022-10-15T12:24:40.687Z,11.10
2022-10-15T12:27:19.675Z,13.57
2022-10-15T12:29:51.198Z,10.18
2022-10-15T12:32:28.751Z,12.40
2022-10-15T12:35:04.159Z,8.57
2022-10-15T12:37:38.757Z,10.80
2022-10-15T12:40:28.567Z,13.00
2022-10-15T12:43:04.253Z,15.35
2022-10-15T12:46:16.575Z,11.55
2022-10-15T12:48:46.296Z,12.98
2022-10-15T12:51:23.510Z,10.27
2022-10-15T12:53:58.984Z,10.02
2022-10-15T12:56:40.244Z,10.45
2022-10-15T12:59:50.537Z,10.25
2022-10-15T13:02:39.028Z,13.57
2022-10-15T13:05:09.448Z,12.63
2022-10-15T13:07:41.173Z,11.50
2022-10-15T13:10:21.990Z,9.32
2022-10-15T13:12:55.511Z,10.40
2022-10-15T13:15:26.471Z,9.93
2022-10-15T13:18:00.998Z,9.80
2022-10-15T13:20:37.192Z,10.73
2022-10-15T13:23:32.531Z,9.73
2022-10-15T13:26:21.110Z,13.30
2022-10-15T13:28:51.206Z,11.52
2022-10-15T13:31:30.542Z,9.80
2022-10-15T13:34:13.888Z,11.38
2022-10-15T13:36:41.578Z,13.20
2022-10-15T13:39:26.967Z,10.27
2022-10-15T13:42:08.134Z,12.95
2022-10-15T13:44:36.035Z,11.65
2022-10-15T13:47:18.126Z,12.60
2022-10-15T13:49:45.602Z,10.70
2022-10-15T13:52:12.864Z,12.40
2022-10-15T13:54:42.681Z,13.20
2022-10-15T13:57:15.516Z,12.60
2022-10-15T13:59:45.817Z,8.15
2022-10-15T14:02:14.350Z,11.77
2022-10-15T14:04:41.706Z,12.20
2022-10-15T14:07:27.860Z,12.95
2022-10-15T14:09:55.858Z,12.32
2022-10-15T14:12:23.719Z,10.88
2022-10-15T14:14:52.662Z,11.77
2022-10-15T14:17:26.843Z,13.40
2022-10-15T14:20:26.760Z,13.82
2022-10-15T14:22:51.895Z,13.38
2022-10-15T14:25:26.107Z,17.30
2022-10-15T14:27:53.702Z,11.57
2022-10-15T14:30:37.301Z,15.75
2022-10-15T14:35:35.258Z,14.23
2022-10-15T14:38:04.753Z,12.30
2022-10-15T14:40:32.365Z,14.65
2022-10-15T14:43:07.457Z,14.90
2022-10-15T14:45:56.844Z,16.83
2022-10-15T14:48:32.754Z,11.48
2022-10-15T14:51:06.562Z,9.30
2022-10-15T14:53:38.810Z,16.30
2022-10-15T14:56:22.995Z,11.27
2022-10-15T14:58:56.812Z,12.40
2022-10-15T15:01:24.977Z,13.80
2022-10-15T15:03:54.756Z,14.02
2022-10-15T15:06:22.244Z,14.88
2022-10-15T15:08:50.240Z,10.50
2022-10-15T15:11:24.353Z,12.32
2022-10-15T15:13:53.182Z,11.15
2022-10-15T15:16:20.493Z,11.43
2022-10-15T15:18:49.244Z,13.70
2022-10-15T15:21:22.353Z,11.70
2022-10-15T15:23:50.098Z,19.65
2022-10-15T15:26:17.455Z,10.98
2022-10-15T15:28:48.453Z,10.32
2022-10-15T15:31:19.488Z,10.30
2022-10-15T15:33:47.152Z,9.20
2022-10-15T15:36:20.834Z,10.75
2022-10-15T15:38:54.024Z,11.30
2022-10-15T15:41:23.941Z,13.98
2022-10-15T15:43:52.027Z,14.65
2022-10-15T15:46:19.753Z,11.73
2022-10-15T15:48:47.810Z,12.80
2022-10-15T15:51:33.695Z,11.25
2022-10-15T15:54:04.640Z,11.48
2022-10-15T15:56:32.561Z,17.45
2022-10-15T15:58:59.921Z,12.38
2022-10-15T16:01:30.364Z,12.30
2022-10-15T16:03:57.735Z,17.25
2022-10-15T16:06:27.906Z,12.20
2022-10-15T16:08:55.615Z,13.52
2022-10-15T16:11:26.350Z,15.80
2022-10-15T16:13:53.624Z,15.10
2022-10-15T16:16:21.826Z,11.18
2022-10-15T16:18:49.245Z,12.90
2022-10-15T16:21:22.867Z,11.45
2022-10-15T16:23:50.416Z,11.02
2022-10-15T16:26:18.447Z,13.20
2022-10-15T16:28:46.185Z,12.70
2022-10-15T16:31:19.327Z,12.57
2022-10-15T16:33:47.281Z,12.80
2022-10-15T16:36:17.851Z,16.10
2022-10-15T16:38:47.042Z,11.68
2022-10-15T16:41:15.773Z,11.80
2022-10-15T16:43:45.207Z,15.32
2022-10-15T16:46:12.601Z,12.15
2022-10-15T16:48:40.041Z,14.82
2022-10-15T16:51:17.670Z,12.13
2022-10-15T16:53:46.518Z,15.13
2022-10-15T16:56:22.986Z,11.98
2022-10-15T16:58:54.862Z,9.10
2022-10-15T17:01:27.796Z,9.35
2022-10-15T17:03:56.961Z,10.82
2022-10-15T17:06:27.074Z,13.63
2022-10-15T17:08:57.293Z,13.77
2022-10-15T17:11:33.460Z,12.10
2022-10-15T17:14:08.384Z,12.25
2022-10-15T17:16:47.362Z,12.50
2022-10-15T17:19:16.925Z,11.88
2022-10-15T17:21:46.888Z,11.48
2022-10-15T17:24:16.571Z,10.23
2022-10-15T17:26:45.506Z,14.18
2022-10-15T17:29:20.738Z,14.15
2022-10-15T17:31:49.369Z,12.43
2022-10-15T17:34:19.673Z,14.70
2022-10-15T17:36:50.723Z,13.90
2022-10-15T17:39:23.255Z,12.23
2022-10-15T17:41:54.795Z,10.27
2022-10-15T17:44:22.208Z,16.42
2022-10-15T17:46:59.123Z,11.73
2022-10-15T17:49:28.410Z,11.55
2022-10-15T17:51:57.978Z,9.30
2022-10-15T17:54:26.747Z,9.80
2022-10-15T17:56:54.287Z,12.63
2022-10-15T17:59:21.819Z,12.80
2022-10-15T18:02:04.493Z,11.65
2022-10-15T18:04:39.762Z,9.40
2022-10-15T18:07:07.655Z,8.80
2022-10-15T18:09:35.440Z,10.55
2022-10-15T18:12:05.422Z,11.18
2022-10-15T18:14:36.041Z,9.95
2022-10-15T18:17:04.706Z,11.15
2022-10-15T18:19:32.403Z,13.30
2022-10-15T18:22:02.057Z,9.00
2022-10-15T18:24:29.321Z,9.05
2022-10-15T18:26:56.796Z,9.48
2022-10-15T18:29:25.536Z,12.45
2022-10-15T18:31:58.085Z,10.93
2022-10-15T18:34:28.289Z,9.50
2022-10-15T18:36:55.592Z,8.35
2022-10-15T18:39:24.004Z,9.05
2022-10-15T18:41:51.398Z,8.07
2022-10-15T18:44:21.257Z,7.15
2022-10-15T18:46:49.219Z,10.73
2022-10-15T18:49:18.263Z,11.48
2022-10-15T18:51:46.758Z,9.27
2022-10-15T18:54:14.374Z,11.68
2022-10-15T18:56:41.767Z,10.77
2022-10-15T18:59:09.179Z,12.00
2022-10-15T19:01:39.141Z,10.13
2022-10-15T19:04:09.451Z,10.70
2022-10-15T19:06:41.844Z,10.53
2022-10-15T19:09:14.838Z,9.02
2022-10-15T19:11:45.579Z,10.63
2022-10-15T19:14:15.502Z,9.27
2022-10-15T19:16:44.218Z,9.43
2022-10-15T19:19:17.602Z,9.20
2022-10-15T19:21:46.423Z,10.10
2022-10-15T19:24:15.991Z,9.82
2022-10-15T19:26:44.376Z,8.93
2022-10-15T19:29:11.979Z,9.20
2022-10-15T19:31:41.689Z,8.15
2022-10-15T19:34:09.660Z,9.88
2022-10-15T19:36:40.815Z,8.20
2022-10-15T19:39:14.397Z,8.75
2022-10-15T19:41:44.828Z,11.50
2022-10-15T19:44:14.514Z,10.77
2022-10-15T19:46:41.898Z,8.95
2022-10-15T19:49:11.975Z,8.82
2022-10-15T19:51:42.844Z,9.73
2022-10-15T19:54:10.351Z,10.73
2022-10-15T19:56:37.682Z,11.15
2022-10-15T19:59:06.486Z,11.05
2022-10-15T20:01:34.490Z,13.98
2022-10-15T20:04:07.028Z,8.82
2022-10-15T20:06:38.591Z,12.55
2022-10-15T20:09:08.131Z,10.38
2022-10-15T20:11:36.792Z,11.52
2022-10-15T20:14:06.448Z,9.43
2022-10-15T20:16:36.884Z,8.82
2022-10-15T20:19:05.680Z,9.38
2022-10-15T20:21:33.276Z,9.27
2022-10-15T20:24:04.767Z,8.57
2022-10-15T20:26:33.215Z,8.10
2022-10-15T20:29:00.811Z,9.40
2022-10-15T20:31:32.902Z,8.70
2022-10-15T20:34:01.116Z,9.00
2022-10-15T20:36:31.596Z,8.65
2022-10-15T20:39:00.885Z,8.23
2022-10-15T20:41:28.797Z,8.57
2022-10-15T20:43:57.264Z,10.98
2022-10-15T20:46:29.232Z,11.38
2022-10-15T20:48:58.668Z,10.52
2022-10-15T20:51:28.638Z,9.65
2022-10-15T20:53:59.244Z,8.27
2022-10-15T20:56:27.061Z,9.25
2022-10-15T20:58:54.412Z,9.02
2022-10-15T21:01:21.836Z,12.80
2022-10-15T21:03:49.134Z,11.07
2022-10-15T21:06:19.025Z,9.57
2022-10-15T21:08:49.071Z,7.97
2022-10-15T21:11:16.536Z,9.65
2022-10-15T21:13:43.956Z,8.68
2022-10-15T21:16:14.900Z,8.00
2022-10-15T21:18:42.317Z,10.88
2022-10-15T21:21:14.845Z,9.00
2022-10-15T21:23:46.558Z,7.82
2022-10-15T21:26:16.136Z,9.38
2022-10-15T21:28:45.261Z,9.50
2022-10-15T21:31:19.628Z,8.90
2022-10-15T21:33:47.089Z,9.15
2022-10-15T21:36:20.612Z,9.18
2022-10-15T21:39:08.874Z,12.02
2022-10-15T21:41:38.936Z,10.18
2022-10-15T21:44:09.465Z,8.70
2022-10-15T21:46:39.552Z,10.45
2022-10-15T21:49:08.567Z,10.05
2022-10-15T21:51:37.305Z,10.05
2022-10-15T21:54:06.514Z,10.20
2022-10-15T21:56:34.979Z,10.70
2022-10-15T21:59:05.747Z,9.13
2022-10-15T22:01:35.140Z,8.70
2022-10-15T22:04:08.062Z,11.13
2022-10-15T22:06:37.013Z,10.18
2022-10-15T22:09:04.876Z,11.35
2022-10-15T22:11:39.307Z,11.57
2022-10-15T22:14:09.994Z,8.20
2022-10-15T22:16:39.459Z,7.80
2022-10-15T22:19:09.295Z,9.23
2022-10-15T22:21:39.226Z,12.98
2022-10-15T22:24:13.727Z,9.55
2022-10-15T22:26:52.326Z,8.70
2022-10-15T22:29:25.923Z,12.02
2022-10-15T22:31:54.090Z,10.75
2022-10-15T22:34:22.694Z,7.25
2022-10-15T22:36:50.594Z,9.85
2022-10-15T22:39:19.687Z,9.60
2022-10-15T22:41:48.494Z,9.82
2022-10-15T22:44:18.261Z,8.43
2022-10-15T22:46:46.968Z,10.52
2022-10-15T22:49:18.439Z,8.80
2022-10-15T22:51:46.290Z,8.13
2022-10-15T22:54:17.318Z,8.93
2022-10-15T22:56:46.319Z,9.23
2022-10-15T22:59:13.599Z,11.90
2022-10-15T23:01:45.453Z,9.52
2022-10-15T23:04:14.770Z,7.95
2022-10-15T23:06:42.476Z,9.35
2022-10-15T23:09:12.026Z,9.02
2022-10-15T23:11:40.644Z,9.70
2022-10-15T23:14:11.929Z,8.48
2022-10-15T23:16:41.945Z,9.05
2022-10-15T23:19:23.060Z,8.63
2022-10-15T23:21:56.670Z,9.35
2022-10-15T23:24:28.378Z,9.63
2022-10-15T23:26:57.130Z,8.90
2022-10-15T23:29:26.396Z,8.50
2022-10-15T23:31:54.854Z,8.55
2022-10-15T23:34:25.022Z,8.88
2022-10-15T23:36:53.171Z,8.18
2022-10-15T23:39:26.190Z,7.55
2022-10-15T23:41:54.889Z,8.80
2022-10-15T23:44:25.782Z,9.90
2022-10-15T23:46:53.415Z,8.38
2022-10-15T23:49:20.751Z,8.68
2022-10-15T23:51:48.520Z,10.43
2022-10-15T23:54:18.024Z,9.85
2022-10-15T23:56:48.636Z,10.13
2022-10-15T23:59:21.383Z,9.70
